sensor_id;sensor_type;location;lat;lon;timestamp;temperature;humidity
37289;DHT22;23174;49.462;11.000;2023-06-19T00:01:32;23.00;93.30
37289;DHT22;23174;49.462;11.000;2023-06-19T00:03:33;23.10;93.20
37289;DHT22;23174;49.462;11.000;2023-06-19T00:05:33;23.20;93.40
37289;DHT22;23174;49.462;11.000;2023-06-19T00:07:35;23.10;93.00
37289;DHT22;23174;49.462;11.000;2023-06-19T00:09:36;23.10;92.80
37289;DHT22;23174;49.462;11.000;2023-06-19T00:11:36;23.00;93.10
37289;DHT22;23174;49.462;11.000;2023-06-19T00:13:37;23.10;93.40
37289;DHT22;23174;49.462;11.000;2023-06-19T00:15:37;23.10;92.90
37289;DHT22;23174;49.462;11.000;2023-06-19T00:17:38;23.20;93.60
37289;DHT22;23174;49.462;11.000;2023-06-19T00:19:39;23.20;93.30
37289;DHT22;23174;49.462;11.000;2023-06-19T00:21:39;23.20;93.10
37289;DHT22;23174;49.462;11.000;2023-06-19T00:23:40;23.20;93.10
37289;DHT22;23174;49.462;11.000;2023-06-19T00:25:40;23.10;92.80
37289;DHT22;23174;49.462;11.000;2023-06-19T00:27:42;23.00;93.10
37289;DHT22;23174;49.462;11.000;2023-06-19T00:29:42;23.00;93.40
37289;DHT22;23174;49.462;11.000;2023-06-19T00:31:43;22.90;94.00
37289;DHT22;23174;49.462;11.000;2023-06-19T00:33:44;22.90;93.40
37289;DHT22;23174;49.462;11.000;2023-06-19T00:35:45;23.00;93.50
37289;DHT22;23174;49.462;11.000;2023-06-19T00:37:46;23.10;93.30
37289;DHT22;23174;49.462;11.000;2023-06-19T00:39:46;23.10;94.30
37289;DHT22;23174;49.462;11.000;2023-06-19T00:41:47;23.00;93.50
37289;DHT22;23174;49.462;11.000;2023-06-19T00:43:48;22.90;92.60
37289;DHT22;23174;49.462;11.000;2023-06-19T00:45:49;23.00;93.50
37289;DHT22;23174;49.462;11.000;2023-06-19T00:47:51;22.90;93.20
37289;DHT22;23174;49.462;11.000;2023-06-19T00:49:52;22.80;93.10
37289;DHT22;23174;49.462;11.000;2023-06-19T00:51:52;22.70;93.10
37289;DHT22;23174;49.462;11.000;2023-06-19T00:53:53;22.60;93.00
37289;DHT22;23174;49.462;11.000;2023-06-19T00:55:55;22.70;93.10
37289;DHT22;23174;49.462;11.000;2023-06-19T00:57:56;22.60;93.10
37289;DHT22;23174;49.462;11.000;2023-06-19T00:59:57;22.60;93.40
37289;DHT22;23174;49.462;11.000;2023-06-19T01:01:58;22.60;93.50
37289;DHT22;23174;49.462;11.000;2023-06-19T01:03:59;22.70;94.40
37289;DHT22;23174;49.462;11.000;2023-06-19T01:06:00;22.70;93.10
37289;DHT22;23174;49.462;11.000;2023-06-19T01:08:27;22.70;93.50
37289;DHT22;23174;49.462;11.000;2023-06-19T01:10:36;22.60;93.20
37289;DHT22;23174;49.462;11.000;2023-06-19T01:12:44;22.50;93.40
37289;DHT22;23174;49.462;11.000;2023-06-19T01:14:57;22.40;94.10
37289;DHT22;23174;49.462;11.000;2023-06-19T01:16:58;22.40;93.40
37289;DHT22;23174;49.462;11.000;2023-06-19T01:18:59;22.30;93.50
37289;DHT22;23174;49.462;11.000;2023-06-19T01:21:15;22.40;94.50
37289;DHT22;23174;49.462;11.000;2023-06-19T01:23:16;22.50;94.50
37289;DHT22;23174;49.462;11.000;2023-06-19T01:25:16;22.50;94.00
37289;DHT22;23174;49.462;11.000;2023-06-19T01:27:17;22.50;94.30
37289;DHT22;23174;49.462;11.000;2023-06-19T01:29:17;22.30;93.50
37289;DHT22;23174;49.462;11.000;2023-06-19T01:31:25;22.30;94.00
37289;DHT22;23174;49.462;11.000;2023-06-19T01:33:31;22.40;94.80
37289;DHT22;23174;49.462;11.000;2023-06-19T01:35:35;22.50;94.60
37289;DHT22;23174;49.462;11.000;2023-06-19T01:37:38;22.50;94.30
37289;DHT22;23174;49.462;11.000;2023-06-19T01:39:41;22.30;93.50
37289;DHT22;23174;49.462;11.000;2023-06-19T01:41:42;22.30;94.00
37289;DHT22;23174;49.462;11.000;2023-06-19T01:43:43;22.30;95.00
37289;DHT22;23174;49.462;11.000;2023-06-19T01:45:44;22.30;94.50
37289;DHT22;23174;49.462;11.000;2023-06-19T01:47:45;22.30;95.60
37289;DHT22;23174;49.462;11.000;2023-06-19T01:49:46;22.50;95.50
37289;DHT22;23174;49.462;11.000;2023-06-19T01:51:47;22.50;94.80
37289;DHT22;23174;49.462;11.000;2023-06-19T01:53:47;22.30;94.20
37289;DHT22;23174;49.462;11.000;2023-06-19T01:55:48;22.00;94.50
37289;DHT22;23174;49.462;11.000;2023-06-19T01:57:48;21.90;95.30
37289;DHT22;23174;49.462;11.000;2023-06-19T01:59:49;21.90;95.00
37289;DHT22;23174;49.462;11.000;2023-06-19T02:01:49;22.10;95.60
37289;DHT22;23174;49.462;11.000;2023-06-19T02:03:50;22.20;95.70
37289;DHT22;23174;49.462;11.000;2023-06-19T02:05:50;22.20;95.90
37289;DHT22;23174;49.462;11.000;2023-06-19T02:07:51;22.00;95.50
37289;DHT22;23174;49.462;11.000;2023-06-19T02:09:51;21.90;95.60
37289;DHT22;23174;49.462;11.000;2023-06-19T02:11:52;21.80;95.30
37289;DHT22;23174;49.462;11.000;2023-06-19T02:13:52;21.80;95.60
37289;DHT22;23174;49.462;11.000;2023-06-19T02:15:53;21.90;95.90
37289;DHT22;23174;49.462;11.000;2023-06-19T02:17:55;21.70;95.90
37289;DHT22;23174;49.462;11.000;2023-06-19T02:19:56;21.60;96.00
37289;DHT22;23174;49.462;11.000;2023-06-19T02:21:56;21.70;96.70
37289;DHT22;23174;49.462;11.000;2023-06-19T02:23:57;21.80;97.20
37289;DHT22;23174;49.462;11.000;2023-06-19T02:25:58;22.00;96.70
37289;DHT22;23174;49.462;11.000;2023-06-19T02:27:58;22.10;96.70
37289;DHT22;23174;49.462;11.000;2023-06-19T02:29:59;22.10;96.80
37289;DHT22;23174;49.462;11.000;2023-06-19T02:32:00;22.10;96.90
37289;DHT22;23174;49.462;11.000;2023-06-19T02:34:01;22.10;96.50
37289;DHT22;23174;49.462;11.000;2023-06-19T02:36:01;22.20;96.30
37289;DHT22;23174;49.462;11.000;2023-06-19T02:38:03;22.20;96.50
37289;DHT22;23174;49.462;11.000;2023-06-19T02:40:05;22.10;96.70
37289;DHT22;23174;49.462;11.000;2023-06-19T02:42:07;22.10;97.00
37289;DHT22;23174;49.462;11.000;2023-06-19T02:44:07;22.20;96.00
37289;DHT22;23174;49.462;11.000;2023-06-19T02:46:08;22.20;97.20
37289;DHT22;23174;49.462;11.000;2023-06-19T02:48:09;22.20;96.50
37289;DHT22;23174;49.462;11.000;2023-06-19T02:50:10;22.00;96.20
37289;DHT22;23174;49.462;11.000;2023-06-19T02:52:10;21.80;96.30
37289;DHT22;23174;49.462;11.000;2023-06-19T02:54:11;21.70;96.90
37289;DHT22;23174;49.462;11.000;2023-06-19T02:56:12;21.70;96.30
37289;DHT22;23174;49.462;11.000;2023-06-19T02:58:12;21.70;96.70
37289;DHT22;23174;49.462;11.000;2023-06-19T03:00:13;21.60;96.50
37289;DHT22;23174;49.462;11.000;2023-06-19T03:02:14;21.70;97.50
37289;DHT22;23174;49.462;11.000;2023-06-19T03:04:14;21.70;96.70
37289;DHT22;23174;49.462;11.000;2023-06-19T03:06:15;21.80;96.80
37289;DHT22;23174;49.462;11.000;2023-06-19T03:08:15;21.70;96.80
37289;DHT22;23174;49.462;11.000;2023-06-19T03:10:16;21.70;96.80
37289;DHT22;23174;49.462;11.000;2023-06-19T03:12:16;21.60;96.90
37289;DHT22;23174;49.462;11.000;2023-06-19T03:14:17;21.70;96.90
37289;DHT22;23174;49.462;11.000;2023-06-19T03:16:18;21.60;96.90
37289;DHT22;23174;49.462;11.000;2023-06-19T03:18:18;21.70;97.80
37289;DHT22;23174;49.462;11.000;2023-06-19T03:20:19;21.80;97.10
37289;DHT22;23174;49.462;11.000;2023-06-19T03:22:20;22.10;97.40
37289;DHT22;23174;49.462;11.000;2023-06-19T03:24:22;22.20;97.50
37289;DHT22;23174;49.462;11.000;2023-06-19T03:26:24;22.20;97.50
37289;DHT22;23174;49.462;11.000;2023-06-19T03:28:27;22.30;97.20
37289;DHT22;23174;49.462;11.000;2023-06-19T03:30:29;22.20;97.30
37289;DHT22;23174;49.462;11.000;2023-06-19T03:32:30;22.30;97.70
37289;DHT22;23174;49.462;11.000;2023-06-19T03:34:30;22.30;97.20
37289;DHT22;23174;49.462;11.000;2023-06-19T03:36:31;22.10;97.00
37289;DHT22;23174;49.462;11.000;2023-06-19T03:38:31;22.00;97.10
37289;DHT22;23174;49.462;11.000;2023-06-19T03:40:32;21.90;97.10
37289;DHT22;23174;49.462;11.000;2023-06-19T03:42:32;21.80;97.50
37289;DHT22;23174;49.462;11.000;2023-06-19T03:44:34;21.90;98.10
37289;DHT22;23174;49.462;11.000;2023-06-19T03:46:35;21.80;98.20
37289;DHT22;23174;49.462;11.000;2023-06-19T03:48:35;21.80;98.40
37289;DHT22;23174;49.462;11.000;2023-06-19T03:50:36;21.80;98.50
37289;DHT22;23174;49.462;11.000;2023-06-19T03:52:37;21.70;98.50
37289;DHT22;23174;49.462;11.000;2023-06-19T03:54:37;21.70;98.50
37289;DHT22;23174;49.462;11.000;2023-06-19T03:56:38;21.70;98.60
37289;DHT22;23174;49.462;11.000;2023-06-19T03:58:38;21.70;98.70
37289;DHT22;23174;49.462;11.000;2023-06-19T04:00:39;21.80;99.10
37289;DHT22;23174;49.462;11.000;2023-06-19T04:02:39;22.00;99.00
37289;DHT22;23174;49.462;11.000;2023-06-19T04:04:40;22.10;98.40
37289;DHT22;23174;49.462;11.000;2023-06-19T04:06:40;21.70;99.00
37289;DHT22;23174;49.462;11.000;2023-06-19T04:08:40;21.60;99.40
37289;DHT22;23174;49.462;11.000;2023-06-19T04:10:41;21.50;99.80
37289;DHT22;23174;49.462;11.000;2023-06-19T04:12:42;21.40;99.90
37289;DHT22;23174;49.462;11.000;2023-06-19T04:14:42;21.70;99.90
37289;DHT22;23174;49.462;11.000;2023-06-19T04:16:43;21.70;99.90
37289;DHT22;23174;49.462;11.000;2023-06-19T04:18:43;21.70;99.90
37289;DHT22;23174;49.462;11.000;2023-06-19T04:20:44;21.50;99.90
37289;DHT22;23174;49.462;11.000;2023-06-19T04:22:44;21.50;99.90
37289;DHT22;23174;49.462;11.000;2023-06-19T04:24:45;21.50;99.90
37289;DHT22;23174;49.462;11.000;2023-06-19T04:26:45;21.50;99.90
37289;DHT22;23174;49.462;11.000;2023-06-19T04:28:45;21.40;99.90
37289;DHT22;23174;49.462;11.000;2023-06-19T04:30:46;21.40;99.90
37289;DHT22;23174;49.462;11.000;2023-06-19T04:32:47;21.40;99.90
37289;DHT22;23174;49.462;11.000;2023-06-19T04:34:47;21.40;99.90
37289;DHT22;23174;49.462;11.000;2023-06-19T04:36:48;21.40;99.90
37289;DHT22;23174;49.462;11.000;2023-06-19T04:38:48;21.40;99.90
37289;DHT22;23174;49.462;11.000;2023-06-19T04:40:52;21.60;99.90
37289;DHT22;23174;49.462;11.000;2023-06-19T04:42:53;21.50;99.90
37289;DHT22;23174;49.462;11.000;2023-06-19T04:44:54;21.50;99.90
37289;DHT22;23174;49.462;11.000;2023-06-19T04:46:55;21.50;99.90
37289;DHT22;23174;49.462;11.000;2023-06-19T04:49:01;21.50;99.90
37289;DHT22;23174;49.462;11.000;2023-06-19T04:51:04;21.50;99.90
37289;DHT22;23174;49.462;11.000;2023-06-19T04:53:04;21.40;99.90
37289;DHT22;23174;49.462;11.000;2023-06-19T04:55:06;21.50;99.90
37289;DHT22;23174;49.462;11.000;2023-06-19T04:57:09;21.40;99.90
37289;DHT22;23174;49.462;11.000;2023-06-19T04:59:10;21.40;99.90
37289;DHT22;23174;49.462;11.000;2023-06-19T05:01:14;21.50;99.90
37289;DHT22;23174;49.462;11.000;2023-06-19T05:03:15;21.60;99.90
37289;DHT22;23174;49.462;11.000;2023-06-19T05:05:17;21.50;99.90
37289;DHT22;23174;49.462;11.000;2023-06-19T05:07:17;21.60;99.90
37289;DHT22;23174;49.462;11.000;2023-06-19T05:09:18;21.60;99.90
37289;DHT22;23174;49.462;11.000;2023-06-19T05:11:20;21.50;99.90
37289;DHT22;23174;49.462;11.000;2023-06-19T05:13:20;21.70;99.90
37289;DHT22;23174;49.462;11.000;2023-06-19T05:15:21;21.60;99.90
37289;DHT22;23174;49.462;11.000;2023-06-19T05:17:21;21.60;99.90
37289;DHT22;23174;49.462;11.000;2023-06-19T05:19:22;21.60;99.90
37289;DHT22;23174;49.462;11.000;2023-06-19T05:21:22;21.70;99.90
37289;DHT22;23174;49.462;11.000;2023-06-19T05:23:23;21.70;99.90
37289;DHT22;23174;49.462;11.000;2023-06-19T05:25:23;21.70;99.90
37289;DHT22;23174;49.462;11.000;2023-06-19T05:27:24;21.80;99.90
37289;DHT22;23174;49.462;11.000;2023-06-19T05:29:24;21.90;99.90
37289;DHT22;23174;49.462;11.000;2023-06-19T05:31:25;22.00;99.90
37289;DHT22;23174;49.462;11.000;2023-06-19T05:33:25;22.00;99.90
37289;DHT22;23174;49.462;11.000;2023-06-19T05:35:27;22.00;99.90
37289;DHT22;23174;49.462;11.000;2023-06-19T05:37:27;22.10;99.90
37289;DHT22;23174;49.462;11.000;2023-06-19T05:39:28;22.20;99.90
37289;DHT22;23174;49.462;11.000;2023-06-19T05:41:28;22.20;99.90
37289;DHT22;23174;49.462;11.000;2023-06-19T05:43:31;22.30;99.90
37289;DHT22;23174;49.462;11.000;2023-06-19T05:45:32;22.40;99.90
37289;DHT22;23174;49.462;11.000;2023-06-19T05:47:32;22.40;99.90
37289;DHT22;23174;49.462;11.000;2023-06-19T05:49:33;22.40;99.90
37289;DHT22;23174;49.462;11.000;2023-06-19T05:51:33;22.50;99.90
37289;DHT22;23174;49.462;11.000;2023-06-19T05:53:34;22.50;99.90
37289;DHT22;23174;49.462;11.000;2023-06-19T05:55:34;22.60;99.90
37289;DHT22;23174;49.462;11.000;2023-06-19T05:57:35;22.60;99.90
37289;DHT22;23174;49.462;11.000;2023-06-19T05:59:35;22.70;99.90
37289;DHT22;23174;49.462;11.000;2023-06-19T06:01:36;22.80;99.90
37289;DHT22;23174;49.462;11.000;2023-06-19T06:03:37;22.80;99.90
37289;DHT22;23174;49.462;11.000;2023-06-19T06:05:37;22.80;99.90
37289;DHT22;23174;49.462;11.000;2023-06-19T06:07:38;22.80;99.90
37289;DHT22;23174;49.462;11.000;2023-06-19T06:09:38;22.80;99.90
37289;DHT22;23174;49.462;11.000;2023-06-19T06:11:38;22.80;99.90
37289;DHT22;23174;49.462;11.000;2023-06-19T06:13:39;22.70;99.90
37289;DHT22;23174;49.462;11.000;2023-06-19T06:15:39;22.70;99.90
37289;DHT22;23174;49.462;11.000;2023-06-19T06:17:40;22.60;99.90
37289;DHT22;23174;49.462;11.000;2023-06-19T06:19:40;22.60;99.90
37289;DHT22;23174;49.462;11.000;2023-06-19T06:21:41;22.60;99.90
37289;DHT22;23174;49.462;11.000;2023-06-19T06:23:41;22.60;99.90
37289;DHT22;23174;49.462;11.000;2023-06-19T06:25:44;22.60;99.90
37289;DHT22;23174;49.462;11.000;2023-06-19T06:27:46;22.60;99.90
37289;DHT22;23174;49.462;11.000;2023-06-19T06:29:46;22.60;99.90
37289;DHT22;23174;49.462;11.000;2023-06-19T06:31:50;22.60;99.90
37289;DHT22;23174;49.462;11.000;2023-06-19T06:33:53;22.60;99.90
37289;DHT22;23174;49.462;11.000;2023-06-19T06:35:55;22.70;99.90
37289;DHT22;23174;49.462;11.000;2023-06-19T06:37:55;22.60;99.90
37289;DHT22;23174;49.462;11.000;2023-06-19T06:39:56;22.60;99.90
37289;DHT22;23174;49.462;11.000;2023-06-19T06:41:56;22.70;99.90
37289;DHT22;23174;49.462;11.000;2023-06-19T06:43:57;22.70;99.90
37289;DHT22;23174;49.462;11.000;2023-06-19T06:45:57;22.70;99.90
37289;DHT22;23174;49.462;11.000;2023-06-19T06:47:58;22.70;99.90
37289;DHT22;23174;49.462;11.000;2023-06-19T06:49:58;22.70;99.90
37289;DHT22;23174;49.462;11.000;2023-06-19T06:51:58;22.70;99.90
37289;DHT22;23174;49.462;11.000;2023-06-19T06:53:59;22.80;99.90
37289;DHT22;23174;49.462;11.000;2023-06-19T06:55:59;22.80;99.90
37289;DHT22;23174;49.462;11.000;2023-06-19T06:58:00;22.90;99.90
37289;DHT22;23174;49.462;11.000;2023-06-19T07:00:01;22.90;99.90
37289;DHT22;23174;49.462;11.000;2023-06-19T07:02:02;22.90;99.90
37289;DHT22;23174;49.462;11.000;2023-06-19T07:04:02;23.00;99.90
37289;DHT22;23174;49.462;11.000;2023-06-19T07:06:03;23.00;99.90
37289;DHT22;23174;49.462;11.000;2023-06-19T07:08:03;23.00;99.90
37289;DHT22;23174;49.462;11.000;2023-06-19T07:10:04;23.00;99.90
37289;DHT22;23174;49.462;11.000;2023-06-19T07:12:05;22.90;99.90
37289;DHT22;23174;49.462;11.000;2023-06-19T07:14:07;23.00;99.90
37289;DHT22;23174;49.462;11.000;2023-06-19T07:16:07;23.00;99.90
37289;DHT22;23174;49.462;11.000;2023-06-19T07:18:08;23.00;99.90
37289;DHT22;23174;49.462;11.000;2023-06-19T07:20:09;23.00;99.90
37289;DHT22;23174;49.462;11.000;2023-06-19T07:22:09;23.00;99.90
37289;DHT22;23174;49.462;11.000;2023-06-19T07:24:10;23.10;99.90
37289;DHT22;23174;49.462;11.000;2023-06-19T07:26:12;23.20;99.90
37289;DHT22;23174;49.462;11.000;2023-06-19T07:28:13;23.30;99.90
37289;DHT22;23174;49.462;11.000;2023-06-19T07:30:13;23.20;99.90
37289;DHT22;23174;49.462;11.000;2023-06-19T07:32:14;23.30;99.90
37289;DHT22;23174;49.462;11.000;2023-06-19T07:34:14;23.20;99.90
37289;DHT22;23174;49.462;11.000;2023-06-19T07:36:15;23.30;99.90
37289;DHT22;23174;49.462;11.000;2023-06-19T07:38:16;23.30;99.90
37289;DHT22;23174;49.462;11.000;2023-06-19T07:40:16;23.30;99.90
37289;DHT22;23174;49.462;11.000;2023-06-19T07:42:18;23.40;99.90
37289;DHT22;23174;49.462;11.000;2023-06-19T07:44:19;23.40;99.90
37289;DHT22;23174;49.462;11.000;2023-06-19T07:46:21;23.50;99.90
37289;DHT22;23174;49.462;11.000;2023-06-19T07:48:21;23.40;99.90
37289;DHT22;23174;49.462;11.000;2023-06-19T07:50:22;23.50;99.90
37289;DHT22;23174;49.462;11.000;2023-06-19T07:52:22;23.50;99.90
37289;DHT22;23174;49.462;11.000;2023-06-19T07:54:23;23.50;99.90
37289;DHT22;23174;49.462;11.000;2023-06-19T07:56:23;23.60;99.90
37289;DHT22;23174;49.462;11.000;2023-06-19T07:58:24;23.60;99.90
37289;DHT22;23174;49.462;11.000;2023-06-19T08:00:24;23.60;99.90
37289;DHT22;23174;49.462;11.000;2023-06-19T08:02:25;23.60;99.90
37289;DHT22;23174;49.462;11.000;2023-06-19T08:04:27;23.60;99.90
37289;DHT22;23174;49.462;11.000;2023-06-19T08:06:27;23.70;99.90
37289;DHT22;23174;49.462;11.000;2023-06-19T08:08:28;23.70;99.90
37289;DHT22;23174;49.462;11.000;2023-06-19T08:10:28;23.70;99.90
37289;DHT22;23174;49.462;11.000;2023-06-19T08:12:29;23.80;99.90
37289;DHT22;23174;49.462;11.000;2023-06-19T08:14:30;23.60;99.90
37289;DHT22;23174;49.462;11.000;2023-06-19T08:16:30;23.70;99.90
37289;DHT22;23174;49.462;11.000;2023-06-19T08:18:31;23.70;99.90
37289;DHT22;23174;49.462;11.000;2023-06-19T08:20:31;23.80;99.90
37289;DHT22;23174;49.462;11.000;2023-06-19T08:22:32;23.80;99.90
37289;DHT22;23174;49.462;11.000;2023-06-19T08:24:33;23.70;99.90
37289;DHT22;23174;49.462;11.000;2023-06-19T08:26:33;23.60;99.90
37289;DHT22;23174;49.462;11.000;2023-06-19T08:28:34;23.60;99.90
37289;DHT22;23174;49.462;11.000;2023-06-19T08:30:34;23.60;99.90
37289;DHT22;23174;49.462;11.000;2023-06-19T08:32:35;23.60;99.90
37289;DHT22;23174;49.462;11.000;2023-06-19T08:34:35;23.60;99.90
37289;DHT22;23174;49.462;11.000;2023-06-19T08:36:38;23.60;99.90
37289;DHT22;23174;49.462;11.000;2023-06-19T08:38:38;23.70;99.90
37289;DHT22;23174;49.462;11.000;2023-06-19T08:40:41;23.80;99.90
37289;DHT22;23174;49.462;11.000;2023-06-19T08:42:43;24.00;99.90
37289;DHT22;23174;49.462;11.000;2023-06-19T08:44:43;24.00;99.90
37289;DHT22;23174;49.462;11.000;2023-06-19T08:46:44;24.00;99.90
37289;DHT22;23174;49.462;11.000;2023-06-19T08:48:45;24.00;99.90
37289;DHT22;23174;49.462;11.000;2023-06-19T08:50:46;24.10;99.90
37289;DHT22;23174;49.462;11.000;2023-06-19T08:52:46;24.20;99.90
37289;DHT22;23174;49.462;11.000;2023-06-19T08:54:47;24.20;99.90
37289;DHT22;23174;49.462;11.000;2023-06-19T08:56:47;24.20;99.90
37289;DHT22;23174;49.462;11.000;2023-06-19T08:58:48;24.30;99.90
37289;DHT22;23174;49.462;11.000;2023-06-19T09:00:49;24.40;99.90
37289;DHT22;23174;49.462;11.000;2023-06-19T09:02:49;24.40;99.90
37289;DHT22;23174;49.462;11.000;2023-06-19T09:04:50;24.40;99.90
37289;DHT22;23174;49.462;11.000;2023-06-19T09:06:52;24.30;99.90
37289;DHT22;23174;49.462;11.000;2023-06-19T09:08:59;24.30;99.90
37289;DHT22;23174;49.462;11.000;2023-06-19T09:11:04;24.40;99.90
37289;DHT22;23174;49.462;11.000;2023-06-19T09:13:05;24.40;99.90
37289;DHT22;23174;49.462;11.000;2023-06-19T09:15:12;24.40;99.90
37289;DHT22;23174;49.462;11.000;2023-06-19T09:17:19;24.60;99.90
37289;DHT22;23174;49.462;11.000;2023-06-19T09:19:22;24.60;99.90
37289;DHT22;23174;49.462;11.000;2023-06-19T09:21:23;24.60;99.90
37289;DHT22;23174;49.462;11.000;2023-06-19T09:23:24;24.50;99.90
37289;DHT22;23174;49.462;11.000;2023-06-19T09:25:25;24.50;99.90
37289;DHT22;23174;49.462;11.000;2023-06-19T09:27:32;24.50;99.90
37289;DHT22;23174;49.462;11.000;2023-06-19T09:29:36;24.50;99.90
37289;DHT22;23174;49.462;11.000;2023-06-19T09:31:38;24.50;99.90
37289;DHT22;23174;49.462;11.000;2023-06-19T09:33:41;24.60;99.90
37289;DHT22;23174;49.462;11.000;2023-06-19T09:35:42;24.70;99.90
37289;DHT22;23174;49.462;11.000;2023-06-19T09:37:43;24.80;99.90
37289;DHT22;23174;49.462;11.000;2023-06-19T09:39:45;24.90;99.90
37289;DHT22;23174;49.462;11.000;2023-06-19T09:41:46;25.00;99.90
37289;DHT22;23174;49.462;11.000;2023-06-19T09:43:50;25.00;99.90
37289;DHT22;23174;49.462;11.000;2023-06-19T09:45:55;25.00;99.90
37289;DHT22;23174;49.462;11.000;2023-06-19T09:47:56;24.90;99.90
37289;DHT22;23174;49.462;11.000;2023-06-19T09:49:57;24.80;99.90
37289;DHT22;23174;49.462;11.000;2023-06-19T09:51:57;24.80;99.90
37289;DHT22;23174;49.462;11.000;2023-06-19T09:53:58;24.80;99.90
37289;DHT22;23174;49.462;11.000;2023-06-19T09:56:01;24.80;99.90
37289;DHT22;23174;49.462;11.000;2023-06-19T09:58:01;24.90;99.90
37289;DHT22;23174;49.462;11.000;2023-06-19T10:00:05;25.00;99.90
37289;DHT22;23174;49.462;11.000;2023-06-19T10:02:11;24.90;99.90
37289;DHT22;23174;49.462;11.000;2023-06-19T10:04:13;25.00;99.90
37289;DHT22;23174;49.462;11.000;2023-06-19T10:06:15;24.90;99.90
37289;DHT22;23174;49.462;11.000;2023-06-19T10:08:30;25.00;99.90
37289;DHT22;23174;49.462;11.000;2023-06-19T10:10:31;25.10;99.90
37289;DHT22;23174;49.462;11.000;2023-06-19T10:12:44;25.20;99.90
37289;DHT22;23174;49.462;11.000;2023-06-19T10:14:46;25.20;99.90
37289;DHT22;23174;49.462;11.000;2023-06-19T10:16:50;25.20;99.90
37289;DHT22;23174;49.462;11.000;2023-06-19T10:18:51;25.40;99.90
37289;DHT22;23174;49.462;11.000;2023-06-19T10:20:51;25.30;99.90
37289;DHT22;23174;49.462;11.000;2023-06-19T10:22:56;25.30;99.90
37289;DHT22;23174;49.462;11.000;2023-06-19T10:24:57;25.40;99.90
37289;DHT22;23174;49.462;11.000;2023-06-19T10:27:02;25.50;99.90
37289;DHT22;23174;49.462;11.000;2023-06-19T10:29:14;25.50;99.90
37289;DHT22;23174;49.462;11.000;2023-06-19T10:31:14;25.60;99.90
37289;DHT22;23174;49.462;11.000;2023-06-19T10:33:15;25.60;99.90
37289;DHT22;23174;49.462;11.000;2023-06-19T10:35:16;25.50;99.90
37289;DHT22;23174;49.462;11.000;2023-06-19T10:37:17;25.50;99.90
37289;DHT22;23174;49.462;11.000;2023-06-19T10:39:18;25.70;99.90
37289;DHT22;23174;49.462;11.000;2023-06-19T10:41:23;25.80;99.90
37289;DHT22;23174;49.462;11.000;2023-06-19T10:43:24;25.80;99.90
37289;DHT22;23174;49.462;11.000;2023-06-19T10:45:28;25.80;99.90
37289;DHT22;23174;49.462;11.000;2023-06-19T10:47:28;25.90;99.90
37289;DHT22;23174;49.462;11.000;2023-06-19T10:49:29;26.00;99.90
37289;DHT22;23174;49.462;11.000;2023-06-19T10:51:37;25.90;99.90
37289;DHT22;23174;49.462;11.000;2023-06-19T10:53:37;25.90;99.90
37289;DHT22;23174;49.462;11.000;2023-06-19T10:55:38;25.80;99.90
37289;DHT22;23174;49.462;11.000;2023-06-19T10:57:40;25.80;99.90
37289;DHT22;23174;49.462;11.000;2023-06-19T10:59:40;25.80;99.90
37289;DHT22;23174;49.462;11.000;2023-06-19T11:01:46;25.90;99.90
37289;DHT22;23174;49.462;11.000;2023-06-19T11:03:47;26.00;99.90
37289;DHT22;23174;49.462;11.000;2023-06-19T11:05:48;26.00;99.90
37289;DHT22;23174;49.462;11.000;2023-06-19T11:07:53;26.10;99.90
37289;DHT22;23174;49.462;11.000;2023-06-19T11:09:54;26.10;99.90
37289;DHT22;23174;49.462;11.000;2023-06-19T11:11:54;26.10;99.90
37289;DHT22;23174;49.462;11.000;2023-06-19T11:13:55;26.10;99.90
37289;DHT22;23174;49.462;11.000;2023-06-19T11:15:55;26.20;99.90
37289;DHT22;23174;49.462;11.000;2023-06-19T11:18:00;26.20;99.90
37289;DHT22;23174;49.462;11.000;2023-06-19T11:20:01;26.20;99.90
37289;DHT22;23174;49.462;11.000;2023-06-19T11:22:02;26.20;99.90
37289;DHT22;23174;49.462;11.000;2023-06-19T11:24:10;26.20;99.90
37289;DHT22;23174;49.462;11.000;2023-06-19T11:26:11;26.10;99.90
37289;DHT22;23174;49.462;11.000;2023-06-19T11:28:13;26.10;99.90
37289;DHT22;23174;49.462;11.000;2023-06-19T11:30:14;26.10;99.90
37289;DHT22;23174;49.462;11.000;2023-06-19T11:32:16;26.10;99.90
37289;DHT22;23174;49.462;11.000;2023-06-19T11:34:32;26.10;99.90
37289;DHT22;23174;49.462;11.000;2023-06-19T11:36:37;26.00;99.90
37289;DHT22;23174;49.462;11.000;2023-06-19T11:38:38;26.00;99.90
37289;DHT22;23174;49.462;11.000;2023-06-19T11:40:42;25.90;99.90
37289;DHT22;23174;49.462;11.000;2023-06-19T11:42:52;25.90;99.90
37289;DHT22;23174;49.462;11.000;2023-06-19T11:44:54;25.80;99.90
37289;DHT22;23174;49.462;11.000;2023-06-19T11:46:58;25.80;99.90
37289;DHT22;23174;49.462;11.000;2023-06-19T11:49:16;25.80;99.90
37289;DHT22;23174;49.462;11.000;2023-06-19T11:51:20;25.70;99.90
37289;DHT22;23174;49.462;11.000;2023-06-19T11:53:21;25.60;99.90
37289;DHT22;23174;49.462;11.000;2023-06-19T11:55:22;25.60;99.90
37289;DHT22;23174;49.462;11.000;2023-06-19T11:57:23;25.70;99.90
37289;DHT22;23174;49.462;11.000;2023-06-19T11:59:23;25.70;99.90
37289;DHT22;23174;49.462;11.000;2023-06-19T12:01:23;25.80;99.90
37289;DHT22;23174;49.462;11.000;2023-06-19T12:03:24;25.80;99.90
37289;DHT22;23174;49.462;11.000;2023-06-19T12:05:24;25.70;99.90
37289;DHT22;23174;49.462;11.000;2023-06-19T12:07:25;25.70;99.90
37289;DHT22;23174;49.462;11.000;2023-06-19T12:09:25;25.70;99.90
37289;DHT22;23174;49.462;11.000;2023-06-19T12:11:26;25.70;99.90
37289;DHT22;23174;49.462;11.000;2023-06-19T12:13:26;25.70;99.90
37289;DHT22;23174;49.462;11.000;2023-06-19T12:15:27;25.60;99.90
37289;DHT22;23174;49.462;11.000;2023-06-19T12:17:28;25.60;99.90
37289;DHT22;23174;49.462;11.000;2023-06-19T12:19:30;25.60;99.90
37289;DHT22;23174;49.462;11.000;2023-06-19T12:21:30;25.60;99.90
37289;DHT22;23174;49.462;11.000;2023-06-19T12:23:31;25.50;99.90
37289;DHT22;23174;49.462;11.000;2023-06-19T12:25:31;25.50;99.90
37289;DHT22;23174;49.462;11.000;2023-06-19T12:27:32;25.40;99.90
37289;DHT22;23174;49.462;11.000;2023-06-19T12:29:33;25.50;99.90
37289;DHT22;23174;49.462;11.000;2023-06-19T12:31:34;25.50;99.90
37289;DHT22;23174;49.462;11.000;2023-06-19T12:33:36;25.40;99.90
37289;DHT22;23174;49.462;11.000;2023-06-19T12:35:40;25.40;99.90